Terminal Aerodrome Forecast
Issued by NWS

Home | Current Version | Previous Version | Text Only | Print | Product List | Glossary On
Versions: 1 2 3 4 5 6 7 8 9 10 11 12
905
FTUS44 KJAN 231139
TAFHKS
TAF
KHKS 231139Z 2312/2412 00000KT 6SM BR FEW025 SCT250
     FM231500 30003KT P6SM VCTS SCT050CB BKN250
     FM240700 03003KT P6SM BKN090 BKN250=

USA.gov is the U.S. government's official web portal to all federal, state and local government web resources and services.